Meteo Giornale » Osservazioni meteo Italia » Catania-Fontanarossa

ore: 00:50 - Osservazioni Meteo Catania-Fontanarossa
Lat. 37° 28' N Lon. 15° 3' E Alt. 11 metri s.l.m.

sereno Europe/Rome

21 °C

Sereno

Temp. 24 Ore

20 °C

31 °C

Ovest

9.3 Km/h

Dew point 19 °C

Umidità 88 %

Visibilità  10 Km

Il sole sorge alle ore 05:36

Il sole tramonta alle ore 20:24

Data e Ora Cielo e Fenomeni T °C DP °C Um. % Pres. hPa Vis. km Vento km/h
Oggi h: 00:50 sereno Sereno 21 19 88 1013 10 O 9.3
Oggi h: 00:20 sereno Sereno 22 19 83 1013 10 N 1.8
Ieri h: 23:50 sereno Sereno 21 19 88 1013 10 N 1.8
Ieri h: 23:20 sereno Sereno 22 20 88 1013 10 N 3.7
Ieri h: 22:50 sereno Sereno 23 20 83 1013 10 N 3.7
Ieri h: 22:20 sereno Sereno 23 19 78 1013 10 E 7.4
Ieri h: 21:50 sereno Sereno 22 19 83 1012 10 E 7.4
Ieri h: 21:20 sereno Sereno 24 18 69 1012 10 N 3.7
Ieri h: 20:50 sereno Sereno 24 18 69 1012 10 N 5.5
Ieri h: 20:20 sereno Sereno 25 18 65 1012 10 N 5.5
Ieri h: 19:50 sereno Sereno 26 18 61 1012 10 SE 7.4
Ieri h: 19:20 sereno Sereno 26 18 61 1012 10 E 9.3
Ieri h: 18:50 sereno Sereno 27 18 57 1012 10 E 11.1
Ieri h: 18:20 sereno Sereno 27 18 57 1012 10 E 9.3
Ieri h: 17:50 sereno Sereno 27 19 61 1012 10 E/SE 11.1
Ieri h: 17:20 sereno Sereno 27 19 61 1012 10 E/SE 16.7
Ieri h: 16:50 sereno Sereno 28 19 58 1012 10 E 25.9
Ieri h: 16:20 sereno Sereno 29 18 51 1012 10 E/NE 27.8
Ieri h: 15:50 sereno Sereno 30 18 48 1012 10 E/NE 24
Ieri h: 15:20 sereno Sereno 30 18 48 1012 10 E/NE 25.9
Ieri h: 14:50 sereno Sereno 31 16 40 1013 10 E/NE 31.5
Ieri h: 14:20 sereno Sereno 31 15 37 1013 10 NE 31.5
Ieri h: 13:50 sereno Sereno 31 16 40 1013 10 E/NE 33.3
Ieri h: 13:20 sereno Sereno 28 19 58 1013 10 E/NE 37
Ieri h: 12:50 sereno Sereno 31 15 37 1013 10 E/NE 25.9
Ieri h: 12:20 sereno Sereno 29 18 51 1013 10 E/NE 25.9
Ieri h: 11:50 sereno Sereno 29 19 54 1013 10 E/NE 20.3
Ieri h: 11:20 sereno Sereno 27 19 61 1013 10 E/NE 25.9
Ieri h: 10:50 sereno Sereno 28 19 58 1013 10 E/NE 25.9
Ieri h: 10:20 sereno Sereno 29 18 51 1013 10 E 14.8
Ieri h: 09:50 sereno Sereno 27 19 61 1013 10 E 14.8
Ieri h: 09:20 sereno Sereno 27 19 61 1013 10 E 11.1
Ieri h: 08:50 sereno Sereno 26 19 65 1013 10 E 7.4
Ieri h: 08:20 sereno Sereno 26 19 65 1013 10 N 3.7
Ieri h: 07:50 sereno Sereno 25 19 69 1013 10 N 3.7
Ieri h: 07:20 sereno Sereno 22 20 88 1012 10 N 3.7
Ieri h: 06:50 sereno Sereno 22 19 83 1012 10 N 3.7
Ieri h: 06:20 sereno Sereno 21 18 82 1012 10 N 1.8
Ieri h: 05:50 sereno Sereno 20 18 88 1012 10 O 7.4
Ieri h: 05:20 sereno Sereno 21 18 82 1012 10 N 5.5
Ieri h: 04:50 sereno Sereno 21 19 88 1012 10 N 1.8
Ieri h: 04:20 sereno Sereno 21 19 88 1012 10 N 3.7
Ieri h: 03:50 sereno Sereno 22 19 83 1012 10 N 3.7
Ieri h: 03:20 sereno Sereno 23 18 73 1012 10 N 5.5
Ieri h: 02:50 sereno Sereno 23 19 78 1012 10 N 1.8
Ieri h: 02:20 sereno Sereno 23 20 83 1013 10 N 1.8
Ieri h: 01:50 sereno Sereno 22 20 88 1013 10 N 3.7